HomeShort term forecast

Short term forecast

Graphical weather forecast for the next 48 hours for Montreal:
Short term forecast
This weather forecast is automatically refreshed every 3 hours.

Hourly Experimental Forecast for the next 48 hours ®

Overall summary: Mostly cloudy throughout the day.

 Date & Hour   Temp   Feel   Baro   Hum   Speed & Bearing   Wind Gust   Precip.%   Precip.   Visibility   Cloud cover   Conditions 
 22/06/2018 - 21:00  21.0°C  21.0°C  1014.3 hPa  40%  6.5 km/h   10.1 km/h  0%  --  16.1km  55%  Partly Cloudy 
 22/06/2018 - 22:00  20.0°C  20.0°C  1014.5 hPa  44%  6.3 km/h   10.4 km/h  0%  --  16.1km  60%  Mostly Cloudy 
 22/06/2018 - 23:00  18.9°C  18.9°C  1014.1 hPa  50%  6.2 km/h   10.2 km/h  0%  --  16.1km  63%  Mostly Cloudy 
 23/06/2018 - 00:00  17.9°C  17.9°C  1014.1 hPa  56%  5.7 km/h   12.0 km/h  0%  --  16.1km  67%  Mostly Cloudy 
 23/06/2018 - 01:00  17.2°C  17.2°C  1013.9 hPa  60%  4.5 km/h   13.4 km/h  0%  --  16.1km  75%  Mostly Cloudy 
 23/06/2018 - 02:00  16.0°C  16.0°C  1013.7 hPa  71%  5.1 km/h   12.7 km/h  0%  --  16.1km  80%  Mostly Cloudy 
 23/06/2018 - 03:00  15.4°C  15.4°C  1013.6 hPa  76%  4.8 km/h   12.1 km/h  0%  --  16.1km  95%  Overcast 
 23/06/2018 - 04:00  15.1°C  15.1°C  1013.4 hPa  79%  4.5 km/h   10.1 km/h  0%  --  16.1km  99%  Overcast 
 23/06/2018 - 05:00  15.2°C  15.2°C  1013.4 hPa  80%  4.5 km/h   8.6 km/h  0%  --  16.1km  100%  Overcast 
 23/06/2018 - 06:00  15.8°C  15.8°C  1013.4 hPa  78%  4.6 km/h   8.1 km/h  1%  0.01 mm/h  16.1km  100%  Overcast 
 23/06/2018 - 07:00  17.3°C  17.3°C  1013.3 hPa  74%  4.7 km/h   8.1 km/h  0%  --  16.1km  99%  Overcast 
 23/06/2018 - 08:00  18.6°C  18.6°C  1013.0 hPa  69%  6.2 km/h   15.7 km/h  8%  0.33 mm/h  16.1km  99%  Overcast 
 23/06/2018 - 09:00  20.3°C  20.3°C  1012.8 hPa  64%  6.4 km/h   14.0 km/h  0%  --  16.1km  96%  Overcast 
 23/06/2018 - 10:00  21.8°C  21.8°C  1012.6 hPa  59%  7.2 km/h   11.6 km/h  0%  --  16.1km  93%  Mostly Cloudy 
 23/06/2018 - 11:00  22.9°C  22.9°C  1012.4 hPa  56%  9.2 km/h   16.9 km/h  0%  --  16.1km  95%  Overcast 
 23/06/2018 - 12:00  23.9°C  23.9°C  1011.9 hPa  50%  11.7 km/h   19.3 km/h  0%  --  16.1km  96%  Overcast 
 23/06/2018 - 13:00  24.4°C  24.4°C  1011.4 hPa  46%  13.8 km/h   21.5 km/h  0%  --  16.1km  98%  Overcast 
 23/06/2018 - 14:00  24.2°C  24.2°C  1010.8 hPa  44%  15.6 km/h   23.2 km/h  0%  --  16.1km  100%  Overcast 
 23/06/2018 - 15:00  23.3°C  23.3°C  1010.4 hPa  45%  16.3 km/h   24.4 km/h  3%  0.02 mm/h  16.1km  98%  Overcast 
 23/06/2018 - 16:00  21.9°C  21.9°C  1009.8 hPa  49%  15.5 km/h   25.0 km/h  6%  0.09 mm/h  16.1km  100%  Overcast 
 23/06/2018 - 17:00  20.8°C  20.8°C  1009.4 hPa  53%  14.2 km/h   24.9 km/h  9%  0.13 mm/h  16.1km  99%  Overcast 
 23/06/2018 - 18:00  19.9°C  19.9°C  1009.1 hPa  57%  13.5 km/h   23.4 km/h  6%  0.07 mm/h  16.1km  99%  Overcast 
 23/06/2018 - 19:00  19.2°C  19.2°C  1009.0 hPa  60%  11.3 km/h   21.0 km/h  4%  0.01 mm/h  16.1km  100%  Overcast 
 23/06/2018 - 20:00  18.3°C  18.3°C  1008.9 hPa  65%  9.0 km/h   19.0 km/h  19%  0.16 mm/h  16.1km  100%  Overcast 
 23/06/2018 - 21:00  17.4°C  17.4°C  1008.7 hPa  70%  9.1 km/h   18.7 km/h  42%  0.54 mm/h  16.1km  100%  Overcast 
 23/06/2018 - 22:00  16.6°C  16.6°C  1008.6 hPa  74%  10.0 km/h   19.1 km/h  44%  0.52 mm/h  16.1km  100%  Overcast 
 23/06/2018 - 23:00  16.0°C  16.0°C  1008.4 hPa  78%  10.2 km/h   18.6 km/h  31%  0.25 mm/h  16.1km  100%  Overcast 
 24/06/2018 - 00:00  15.4°C  15.4°C  1008.2 hPa  82%  9.6 km/h   15.9 km/h  37%  0.32 mm/h  16.1km  100%  Overcast 
 24/06/2018 - 01:00  15.1°C  15.1°C  1007.9 hPa  86%  8.5 km/h   12.2 km/h  27%  0.17 mm/h  16.1km  99%  Overcast 
 24/06/2018 - 02:00  14.8°C  14.8°C  1007.7 hPa  88%  7.5 km/h   9.9 km/h  19%  0.11 mm/h  16.1km  98%  Overcast 
 24/06/2018 - 03:00  14.4°C  14.4°C  1007.7 hPa  90%  7.4 km/h   10.3 km/h  26%  0.19 mm/h  16.1km  94%  Overcast 
 24/06/2018 - 04:00  14.1°C  14.1°C  1007.8 hPa  91%  7.3 km/h   12.1 km/h  12%  0.08 mm/h  16.1km  89%  Mostly Cloudy 
 24/06/2018 - 05:00  14.0°C  14.0°C  1007.9 hPa  91%  7.5 km/h   13.5 km/h  7%  0.06 mm/h  16.1km  84%  Mostly Cloudy 
 24/06/2018 - 06:00  14.5°C  14.5°C  1008.1 hPa  88%  7.3 km/h   13.6 km/h  3%  0.01 mm/h  16.1km  79%  Mostly Cloudy 
 24/06/2018 - 07:00  15.5°C  15.5°C  1008.6 hPa  84%  6.2 km/h   12.9 km/h  3%  0.01 mm/h  16.1km  73%  Mostly Cloudy 
 24/06/2018 - 08:00  16.5°C  16.5°C  1009.0 hPa  80%  5.8 km/h   12.1 km/h  2%  0.02 mm/h  16.1km  68%  Mostly Cloudy 
 24/06/2018 - 09:00  18.0°C  18.0°C  1009.3 hPa  74%  5.2 km/h   10.8 km/h  2%  0.02 mm/h  16.1km  64%  Mostly Cloudy 
 24/06/2018 - 10:00  19.8°C  19.8°C  1009.5 hPa  68%  6.0 km/h   9.4 km/h  2%  0.02 mm/h  16.1km  60%  Mostly Cloudy 
 24/06/2018 - 11:00  21.4°C  21.4°C  1009.7 hPa  62%  5.9 km/h   8.8 km/h  2%  0.02 mm/h  16.1km  56%  Partly Cloudy 
 24/06/2018 - 12:00  22.3°C  22.3°C  1009.8 hPa  60%  6.3 km/h   9.8 km/h  2%  0.07 mm/h  16.1km  71%  Mostly Cloudy 
 24/06/2018 - 13:00  22.8°C  22.8°C  1009.8 hPa  59%  7.7 km/h   11.6 km/h  7%  0.20 mm/h  16.1km  84%  Mostly Cloudy 
 24/06/2018 - 14:00  22.5°C  22.5°C  1010.0 hPa  60%  8.5 km/h   13.1 km/h  18%  0.36 mm/h  16.1km  94%  Overcast 
 24/06/2018 - 15:00  21.5°C  21.5°C  1010.3 hPa  64%  9.3 km/h   14.5 km/h  27%  0.46 mm/h  16.1km  96%  Overcast 
 24/06/2018 - 16:00  19.8°C  19.8°C  1010.7 hPa  70%  10.3 km/h   15.7 km/h  38%  0.60 mm/h  15.2km  95%  Overcast 
 24/06/2018 - 17:00  18.4°C  18.4°C  1011.2 hPa  76%  10.3 km/h   15.8 km/h  57%  0.95 mm/h  14.6km  95%  Light Rain 
 24/06/2018 - 18:00  17.9°C  17.9°C  1011.7 hPa  78%  9.4 km/h   13.1 km/h  69%  1.39 mm/h  14.7km  96%  Rain 
 24/06/2018 - 19:00  17.8°C  17.8°C  1012.3 hPa  80%  8.0 km/h   8.8 km/h  60%  0.69 mm/h  15.3km  98%  Overcast 
 24/06/2018 - 20:00  17.4°C  17.4°C  1012.8 hPa  82%  5.5 km/h   6.5 km/h  24%  0.19 mm/h  16.1km  100%  Overcast 
Test

 

Past weather and reports

Past weatherFind in this section the past weather conditions, weather archive, graphics, reports and statistics.

Current conditions

Current weather condition for MontrealAll you need to know about the current weather conditions for Montreal. Weather data is updated every 10 minutes.

Weather forecast

Current Montreal weatherSince 2004, celinium.com website has provided accurate weather forecast for Montreal's island.